Decoded Metar for KISW (WISCONSIN RAPIDS in WI, USA) (IATA:ISW) | Meteo·Mobile Aviation Weather
aviador You're here:

KISW Decoded Metar

WISCONSIN RAPIDS in WI, USA
Report Time2020-02-22 21:54:00
UTC Time2020-02-22 22:43:26
Flight Rules vfr VFR
Wind210° at 08 kt
W.Decomp.*RWY 20: 7.9 kt HW 1.5 kt RCW
RWY 18: 6.9 kt HW 4.1 kt RCW
RWY 30: 0.1 kt HW 8 kt LCW
Visibility9999 m
Phenomena:N/A
Clouds:N/A
Expected CloudBase > 3,600 ft AGL from Temp-Dew spread
CeilingNone
Temp06°C (ISA -7)
Dew Point-3°C (53% RH)
AAT0.8°C
QNH1015 hPa
Density Alt167 ft
Elevation1,007 ft
Report Wrong Elevation
Raw Report
KISW 222154Z AUTO 21008KT 10SM CLR 06/M03 A2996 RMK AO2 SLP160
T00611028=

Extra information for KISW:More info

Metar Taf Metar & Taf Last 4 Metars F.Rules Stats Wind Profile Meteogram Temp Stats Airport Information Weather charts Add Link Nearby VenuesMetar ALERT Operation Metar Decoded Social comments

AIRNAV info for KISW